Aviation Digital Data Service (ADDS)

Output produced by METARs form (0145 UTC 26 May 2017)
found at http://aviationweather.gov/adds/metars/
 
METAR text: KHDN 260135Z AUTO 08003KT 10SM SCT065 11/05 A2983 RMK AO1
Conditions at: KHDN (HAYDEN/YAMPA , CO, US) observed 0135 UTC 26 May 2017
Temperature: 11.0°C (52°F)
Dewpoint: 5.0°C (41°F) [RH = 66%]
Pressure (altimeter): 29.83 inches Hg (1010.2 mb)
Winds: from the E (80 degrees) at 3 MPH (3 knots; 1.6 m/s)
Visibility: 10 or more miles (16+ km)
Ceiling: at least 12,000 feet AGL
Clouds: scattered clouds at 6500 feet AGL
Weather: automated observation with no human augmentation;
there may or may not be significant weather present at this time